Time;durP1;ratioP1;P1;durP2;ratioP2;P2;SDS_P1;SDS_P2;PMS_P1;PMS_P2;Temp;Humidity;BMP_temperature;BMP_pressure;BME280_temperature;BME280_humidity;BME280_pressure;Samples;Min_cycle;Max_cycle;Signal;HPM_P1;HPM_P2
2022/12/09 00:00:08;;;;;;;0.00;0.00;;;14.00;77.10;;;;;;4197233;28;20043;-52
2022/12/09 00:02:50;;;;;;;0.00;0.00;;;14.00;77.10;;;;;;4210289;28;20054;-55
2022/12/09 00:05:32;;;;;;;0.00;0.00;;;14.00;76.90;;;;;;4210066;28;20110;-53
2022/12/09 00:08:13;;;;;;;0.00;0.00;;;14.20;76.50;;;;;;4181504;28;20048;-55
2022/12/09 00:10:54;;;;;;;0.10;0.10;;;14.30;76.80;;;;;;4208888;28;20044;-50
2022/12/09 00:13:36;;;;;;;0.00;0.00;;;14.30;75.50;;;;;;4211090;28;20059;-52
2022/12/09 00:16:17;;;;;;;;;;;14.40;75.10;;;;;;4211716;28;20097;-54
2022/12/09 00:18:59;;;;;;;0.00;0.00;;;14.50;74.80;;;;;;4211120;28;19931;-55
2022/12/09 00:21:42;;;;;;;1.55;1.45;;;14.50;74.50;;;;;;4198560;28;20051;-52
2022/12/09 00:24:23;;;;;;;0.00;0.00;;;14.50;74.30;;;;;;4210727;28;20046;-50
2022/12/09 00:27:04;;;;;;;0.00;0.00;;;14.50;74.30;;;;;;4210775;28;20051;-53
2022/12/09 00:29:45;;;;;;;0.00;0.00;;;14.50;74.30;;;;;;4210752;28;20136;-53
2022/12/09 00:32:26;;;;;;;0.15;0.15;;;14.60;74.00;;;;;;4210498;28;20410;-52
2022/12/09 00:35:07;;;;;;;0.70;0.70;;;14.70;73.70;;;;;;4210610;28;20605;-55
2022/12/09 00:37:49;;;;;;;0.00;0.00;;;14.70;73.50;;;;;;4209551;28;20441;-54
2022/12/09 00:40:30;;;;;;;0.68;0.52;;;14.70;73.10;;;;;;4209800;28;20530;-56
2022/12/09 00:43:11;;;;;;;0.68;0.68;;;14.80;73.90;;;;;;4210718;28;20058;-50
2022/12/09 00:45:52;;;;;;;0.20;0.20;;;14.70;72.80;;;;;;4210652;28;20482;-50
2022/12/09 00:48:34;;;;;;;1.25;0.52;;;14.80;72.80;;;;;;4210701;28;20055;-55
2022/12/09 00:51:17;;;;;;;0.03;0.03;;;14.70;72.80;;;;;;4192765;28;20105;-51
2022/12/09 00:54:00;;;;;;;0.00;0.00;;;14.70;72.80;;;;;;4193898;28;20056;-55
2022/12/09 00:56:41;;;;;;;0.00;0.00;;;14.70;72.70;;;;;;4204900;28;20128;-50
2022/12/09 00:59:22;;;;;;;1.45;1.35;;;14.80;72.60;;;;;;4210053;28;20061;-51
2022/12/09 01:02:03;;;;;;;0.10;0.10;;;14.80;72.40;;;;;;4191893;28;20051;-50
2022/12/09 01:04:43;;;;;;;0.00;0.00;;;14.80;72.40;;;;;;4209285;28;20062;-53
2022/12/09 01:07:27;;;;;;;0.00;0.00;;;14.80;72.40;;;;;;4209194;28;20054;-52
2022/12/09 01:10:10;;;;;;;0.00;0.00;;;14.70;72.40;;;;;;4197035;28;20047;-54
2022/12/09 01:12:51;;;;;;;0.03;0.03;;;14.70;72.50;;;;;;4209306;28;20055;-51
2022/12/09 01:15:31;;;;;;;0.03;0.03;;;14.70;72.60;;;;;;4209343;28;20186;-53
2022/12/09 01:18:13;;;;;;;0.00;0.00;;;14.70;72.50;;;;;;4209312;28;20494;-54
2022/12/09 01:20:56;;;;;;;0.00;0.00;;;14.80;72.30;;;;;;4194661;28;20113;-52
2022/12/09 01:23:38;;;;;;;0.00;0.00;;;14.90;72.10;;;;;;4209222;28;20055;-54
2022/12/09 01:26:20;;;;;;;0.20;0.20;;;14.90;71.90;;;;;;4209370;28;20811;-59
2022/12/09 01:29:01;;;;;;;0.00;0.00;;;14.90;71.70;;;;;;4208424;28;20062;-50
2022/12/09 01:31:42;;;;;;;4.35;1.85;;;14.80;71.70;;;;;;4209057;28;20051;-52
2022/12/09 01:34:23;;;;;;;0.00;0.00;;;14.80;71.80;;;;;;4209257;28;20058;-53
2022/12/09 01:37:05;;;;;;;0.32;0.32;;;14.80;71.90;;;;;;4209049;28;20593;-60
2022/12/09 01:39:46;;;;;;;0.13;0.13;;;14.80;72.10;;;;;;4196713;28;20055;-60
2022/12/09 01:42:28;;;;;;;0.00;0.00;;;14.80;72.20;;;;;;4208287;28;20186;-53
2022/12/09 01:45:41;;;;;;;0.35;0.35;;;14.80;72.10;;;;;;4207660;28;20055;-56
2022/12/09 01:48:27;;;;;;;0.30;0.30;;;14.90;71.60;;;;;;4209445;28;20518;-53
2022/12/09 01:51:12;;;;;;;0.00;0.00;;;15.00;71.20;;;;;;4191555;28;20056;-52
2022/12/09 01:53:52;;;;;;;0.00;0.00;;;15.10;70.90;;;;;;4208860;28;20047;-53
2022/12/09 01:56:35;;;;;;;0.00;0.00;;;15.20;70.60;;;;;;4196258;28;20402;-53
2022/12/09 01:59:22;;;;;;;0.00;0.00;;;15.20;70.30;;;;;;4185223;28;20490;-50
2022/12/09 02:02:04;;;;;;;0.00;0.00;;;15.20;70.10;;;;;;4195238;28;20050;-51
2022/12/09 02:04:48;;;;;;;0.22;0.22;;;15.20;70.00;;;;;;4195725;28;20182;-52
2022/12/09 02:07:31;;;;;;;0.00;0.00;;;15.30;69.90;;;;;;4195621;28;20509;-56
2022/12/09 02:10:14;;;;;;;;;;;15.30;69.60;;;;;;4191340;28;20545;-55
2022/12/09 02:13:14;;;;;;;2.05;1.85;;;15.40;69.60;;;;;;4179392;28;20013;-56
2022/12/09 02:16:01;;;;;;;0.00;0.00;;;15.40;69.50;;;;;;4179852;28;20056;-54
2022/12/09 02:18:47;;;;;;;0.00;0.00;;;15.40;69.10;;;;;;4207468;28;20498;-56
2022/12/09 02:21:33;;;;;;;0.10;0.10;;;15.50;68.80;;;;;;4196168;28;20344;-51
2022/12/09 02:24:22;;;;;;;0.00;0.00;;;15.50;68.60;;;;;;4196427;28;20063;-52
2022/12/09 02:27:12;;;;;;;0.10;0.10;;;15.60;68.50;;;;;;4195959;28;20157;-51
2022/12/09 02:30:04;;;;;;;1.67;0.47;;;15.60;68.40;;;;;;4184794;28;20047;-51
2022/12/09 02:33:23;;;;;;;0.28;0.28;;;15.60;68.00;;;;;;4195868;28;20055;-50
2022/12/09 02:36:11;;;;;;;0.00;0.00;;;15.70;67.80;;;;;;4179516;28;20074;-53
2022/12/09 02:38:53;;;;;;;0.00;0.00;;;15.70;68.50;;;;;;4179659;28;20043;-54
2022/12/09 02:41:37;;;;;;;0.00;0.00;;;15.70;67.70;;;;;;4179694;28;20129;-56
2022/12/09 02:44:22;;;;;;;1.00;1.00;;;15.70;67.70;;;;;;4193262;28;20384;-50
2022/12/09 02:47:06;;;;;;;0.38;0.38;;;15.80;67.50;;;;;;4179272;28;20091;-51
2022/12/09 02:49:51;;;;;;;0.10;0.10;;;15.80;67.30;;;;;;4185682;28;20177;-52
2022/12/09 02:52:36;;;;;;;0.00;0.00;;;15.80;67.20;;;;;;4184367;28;20059;-60
2022/12/09 02:55:20;;;;;;;0.00;0.00;;;15.80;67.30;;;;;;4208018;28;20612;-60
2022/12/09 02:58:02;;;;;;;0.00;0.00;;;15.80;67.40;;;;;;4195422;28;20075;-60
2022/12/09 03:00:46;;;;;;;0.00;0.00;;;15.80;67.20;;;;;;4195407;28;20055;-60
2022/12/09 03:03:28;;;;;;;;;;;15.80;67.20;;;;;;4208685;28;20047;-60
2022/12/09 03:06:16;;;;;;;0.00;0.00;;;15.80;67.40;;;;;;4198417;28;20053;-60
2022/12/09 03:09:06;;;;;;;0.20;0.20;;;15.70;67.60;;;;;;4211200;28;20506;-60
2022/12/09 03:11:49;;;;;;;0.00;0.00;;;15.60;67.80;;;;;;4211334;28;20059;-60
2022/12/09 03:14:35;;;;;;;0.28;0.28;;;15.70;67.80;;;;;;4211791;28;20059;-60
2022/12/09 03:17:19;;;;;;;0.00;0.00;;;15.70;67.60;;;;;;4212198;28;20062;-61
2022/12/09 03:20:04;;;;;;;0.95;0.95;;;15.70;67.60;;;;;;4212030;28;20055;-60
2022/12/09 03:22:49;;;;;;;0.00;0.00;;;15.70;67.60;;;;;;4211672;28;20047;-60
2022/12/09 03:25:38;;;;;;;0.00;0.00;;;15.70;67.50;;;;;;4211651;28;20055;-60
2022/12/09 03:28:24;;;;;;;0.00;0.00;;;15.70;67.40;;;;;;4195141;28;20055;-59
2022/12/09 03:31:08;;;;;;;0.22;0.22;;;15.70;67.50;;;;;;4210914;28;20533;-60
2022/12/09 03:33:53;;;;;;;0.00;0.00;;;15.70;68.30;;;;;;4198699;28;20437;-61
2022/12/09 03:36:37;;;;;;;0.00;0.00;;;15.70;67.30;;;;;;4211013;28;20087;-60
2022/12/09 03:39:24;;;;;;;0.10;0.10;;;15.70;67.40;;;;;;4210824;28;20457;-60
2022/12/09 03:42:16;;;;;;;0.00;0.00;;;15.70;68.40;;;;;;4210609;28;20102;-60
2022/12/09 03:45:02;;;;;;;1.27;1.17;;;15.70;67.40;;;;;;4210640;28;20116;-59
2022/12/09 03:47:45;;;;;;;0.00;0.00;;;15.70;67.50;;;;;;4210850;28;20483;-60
2022/12/09 03:50:32;;;;;;;0.00;0.00;;;15.60;67.00;;;;;;4210334;28;20035;-61
2022/12/09 03:53:17;;;;;;;0.00;0.00;;;15.60;67.60;;;;;;4194183;28;20498;-60
2022/12/09 03:56:02;;;;;;;0.00;0.00;;;15.60;67.60;;;;;;4205868;28;20442;-60
2022/12/09 03:58:47;;;;;;;1.20;1.20;;;15.60;67.70;;;;;;4210324;28;20051;-60
2022/12/09 04:01:30;;;;;;;0.08;0.08;;;15.50;67.80;;;;;;4193798;28;20071;-60
2022/12/09 04:04:11;;;;;;;0.98;0.65;;;15.40;68.10;;;;;;4181668;28;20646;-60
2022/12/09 04:06:54;;;;;;;0.00;0.00;;;15.40;68.40;;;;;;4193700;28;20048;-60
2022/12/09 04:09:35;;;;;;;0.00;0.00;;;15.40;68.70;;;;;;4187224;28;20125;-59
2022/12/09 04:12:18;;;;;;;0.00;0.00;;;15.40;68.60;;;;;;4209656;28;20118;-59
2022/12/09 04:15:00;;;;;;;1.55;1.48;;;15.50;68.30;;;;;;4211024;28;20039;-60
2022/12/09 04:17:41;;;;;;;0.00;0.00;;;15.50;68.00;;;;;;4210530;28;20502;-60
2022/12/09 04:20:22;;;;;;;0.00;0.00;;;15.50;67.90;;;;;;4210982;28;20055;-55
2022/12/09 04:23:03;;;;;;;0.75;0.75;;;15.50;67.90;;;;;;4194586;28;20059;-54
2022/12/09 04:25:45;;;;;;;0.00;0.00;;;15.60;68.00;;;;;;4194315;28;20511;-55
2022/12/09 04:28:26;;;;;;;0.00;0.00;;;15.50;67.90;;;;;;4194157;28;20121;-53
2022/12/09 04:31:12;;;;;;;0.00;0.00;;;15.50;67.80;;;;;;4177587;28;20060;-54
2022/12/09 04:33:53;;;;;;;0.00;0.00;;;15.50;67.90;;;;;;4177698;28;20052;-55
2022/12/09 04:36:34;;;;;;;;;;;15.50;68.10;;;;;;4178143;28;20408;-53
2022/12/09 04:39:15;;;;;;;0.00;0.00;;;15.50;68.10;;;;;;4181816;28;20033;-52
2022/12/09 04:41:56;;;;;;;1.27;0.90;;;15.50;68.10;;;;;;4194218;28;20435;-50
2022/12/09 04:44:37;;;;;;;0.00;0.00;;;15.50;68.20;;;;;;4193841;28;20097;-50
2022/12/09 04:47:20;;;;;;;0.00;0.00;;;15.50;68.30;;;;;;4193659;28;20556;-52
2022/12/09 04:50:01;;;;;;;2.05;1.88;;;15.50;68.20;;;;;;4194125;28;20182;-54
2022/12/09 04:52:43;;;;;;;0.00;0.00;;;15.40;68.10;;;;;;4193463;28;20170;-53
2022/12/09 04:55:24;;;;;;;0.10;0.10;;;15.40;68.20;;;;;;4193651;28;20090;-54
2022/12/09 04:58:04;;;;;;;0.00;0.00;;;15.40;68.20;;;;;;4208571;28;20050;-61
2022/12/09 05:00:46;;;;;;;0.73;0.73;;;15.50;68.10;;;;;;4209549;28;20043;-60
2022/12/09 05:03:28;;;;;;;0.08;0.08;;;15.50;67.80;;;;;;4210556;28;20109;-61
2022/12/09 05:06:12;;;;;;;0.00;0.00;;;15.60;67.60;;;;;;4210532;28;20132;-60
2022/12/09 05:08:53;;;;;;;0.00;0.00;;;15.60;67.50;;;;;;4193398;28;20051;-60
2022/12/09 05:11:34;;;;;;;0.30;0.30;;;15.60;67.40;;;;;;4209060;28;20113;-60
2022/12/09 05:14:15;;;;;;;0.00;0.00;;;15.70;67.20;;;;;;4209088;28;20059;-59
2022/12/09 05:16:56;;;;;;;0.00;0.00;;;15.70;67.20;;;;;;4208688;28;20117;-61
2022/12/09 05:19:39;;;;;;;0.00;0.00;;;15.70;67.10;;;;;;4208992;28;20059;-60
2022/12/09 05:22:20;;;;;;;0.52;0.52;;;15.60;67.20;;;;;;4208893;28;20047;-60
2022/12/09 05:25:01;;;;;;;0.00;0.00;;;15.60;67.40;;;;;;4209265;28;20101;-60
2022/12/09 05:27:42;;;;;;;1.45;1.35;;;15.50;67.50;;;;;;4195994;28;20055;-60
2022/12/09 05:30:23;;;;;;;0.20;0.20;;;15.40;67.80;;;;;;4208877;28;20105;-60
2022/12/09 05:33:05;;;;;;;;;;;15.40;68.00;;;;;;4192550;28;20075;-61
2022/12/09 05:35:47;;;;;;;2.40;1.10;;;15.50;67.90;;;;;;4191980;28;19927;-59
2022/12/09 05:38:32;;;;;;;0.10;0.10;;;15.50;67.50;;;;;;4208141;28;20062;-60
2022/12/09 05:41:13;;;;;;;0.00;0.00;;;15.60;68.00;;;;;;4209653;28;20128;-60
2022/12/09 05:43:54;;;;;;;0.00;0.00;;;15.70;67.00;;;;;;4209640;28;20071;-60
2022/12/09 05:46:36;;;;;;;0.00;0.00;;;15.70;66.90;;;;;;4192811;28;20097;-60
2022/12/09 05:49:17;;;;;;;;;;;15.80;66.80;;;;;;4192116;28;20169;-61
2022/12/09 05:51:59;;;;;;;0.10;0.10;;;15.80;66.70;;;;;;4192159;28;19927;-62
2022/12/09 05:54:41;;;;;;;1.05;1.00;;;15.80;67.50;;;;;;4191687;28;20111;-60
2022/12/09 05:57:23;;;;;;;1.45;0.93;;;15.70;66.70;;;;;;4191685;28;20051;-60
2022/12/09 06:00:05;;;;;;;0.10;0.10;;;15.60;67.00;;;;;;4191607;28;20046;-60
2022/12/09 06:02:51;;;;;;;0.00;0.00;;;15.60;67.20;;;;;;4208112;28;20502;-60
2022/12/09 06:05:32;;;;;;;0.52;0.38;;;15.70;68.10;;;;;;4191730;28;20422;-51
2022/12/09 06:08:16;;;;;;;0.00;0.00;;;15.70;67.90;;;;;;4192377;28;20127;-52
2022/12/09 06:10:57;;;;;;;0.00;0.00;;;15.80;66.80;;;;;;4206868;28;20055;-62
2022/12/09 06:13:38;;;;;;;0.00;0.00;;;15.80;66.60;;;;;;4208836;28;20058;-60
2022/12/09 06:16:21;;;;;;;0.00;0.00;;;15.90;66.40;;;;;;4209091;28;20612;-51
2022/12/09 06:19:02;;;;;;;1.08;0.70;;;15.90;66.20;;;;;;4192293;28;20055;-52
2022/12/09 06:21:43;;;;;;;0.00;0.00;;;15.90;66.30;;;;;;4208506;28;20544;-60
2022/12/09 06:24:26;;;;;;;0.22;0.22;;;15.90;66.20;;;;;;4207739;28;20051;-61
2022/12/09 06:27:07;;;;;;;0.00;0.00;;;16.00;66.00;;;;;;4208193;28;20059;-60
2022/12/09 06:29:48;;;;;;;0.00;0.00;;;16.00;65.80;;;;;;4208821;28;20078;-60
2022/12/09 06:32:30;;;;;;;0.00;0.00;;;16.00;65.70;;;;;;4190853;28;20055;-60
2022/12/09 06:35:12;;;;;;;0.00;0.00;;;16.00;65.50;;;;;;4207982;28;20079;-60
2022/12/09 06:37:53;;;;;;;;;;;16.00;65.40;;;;;;4208932;28;20054;-60
2022/12/09 06:40:40;;;;;;;0.93;0.93;;;16.00;65.50;;;;;;4207932;28;20374;-60
2022/12/09 06:43:21;;;;;;;0.10;0.10;;;16.00;65.50;;;;;;4208089;28;20182;-60
2022/12/09 06:46:02;;;;;;;0.00;0.00;;;16.00;65.50;;;;;;4208257;28;20059;-60
2022/12/09 06:48:43;;;;;;;0.10;0.10;;;16.00;65.60;;;;;;4208454;28;20067;-60
2022/12/09 06:51:25;;;;;;;0.10;0.10;;;15.90;65.60;;;;;;4207720;28;20055;-60
2022/12/09 06:54:08;;;;;;;0.10;0.10;;;16.00;65.80;;;;;;4208661;28;20549;-59
2022/12/09 06:56:50;;;;;;;0.00;0.00;;;15.90;65.90;;;;;;4209155;28;20051;-60
2022/12/09 06:59:31;;;;;;;0.00;0.00;;;15.90;66.10;;;;;;4208849;28;20063;-60
2022/12/09 07:02:13;;;;;;;0.00;0.00;;;15.90;66.30;;;;;;4203790;28;20046;-60
2022/12/09 07:04:55;;;;;;;0.00;0.00;;;15.80;66.30;;;;;;4208158;28;20050;-60
2022/12/09 07:07:37;;;;;;;0.75;0.45;;;15.70;66.40;;;;;;4208880;28;20050;-60
2022/12/09 07:10:19;;;;;;;4.43;0.75;;;15.70;66.80;;;;;;4208966;28;20125;-60
2022/12/09 07:13:01;;;;;;;0.00;0.00;;;15.70;67.00;;;;;;4191315;28;20412;-59
2022/12/09 07:15:42;;;;;;;0.00;0.00;;;15.70;67.60;;;;;;4207826;28;20055;-59
2022/12/09 07:18:24;;;;;;;0.00;0.00;;;15.70;66.60;;;;;;4208431;28;20085;-59
2022/12/09 07:21:09;;;;;;;0.00;0.00;;;15.80;66.40;;;;;;4207658;28;20066;-60
2022/12/09 07:23:51;;;;;;;0.00;0.00;;;15.80;66.20;;;;;;4208864;28;20452;-60
2022/12/09 07:26:33;;;;;;;0.00;0.00;;;15.80;66.20;;;;;;4208437;28;20054;-60
2022/12/09 07:29:16;;;;;;;0.00;0.00;;;15.80;66.30;;;;;;4191988;28;20056;-59
2022/12/09 07:31:57;;;;;;;0.47;0.47;;;15.80;66.30;;;;;;4187958;28;20055;-60
2022/12/09 07:34:39;;;;;;;0.00;0.00;;;15.80;66.30;;;;;;4206800;28;20580;-59
2022/12/09 07:37:20;;;;;;;0.28;0.28;;;15.80;66.30;;;;;;4208284;28;20043;-59
2022/12/09 07:40:01;;;;;;;0.50;0.50;;;15.70;66.50;;;;;;4208025;28;20402;-59
2022/12/09 07:42:42;;;;;;;0.03;0.03;;;15.70;67.00;;;;;;4207346;28;20278;-60
2022/12/09 07:45:25;;;;;;;0.90;0.90;;;15.70;67.00;;;;;;4208595;28;20493;-59
2022/12/09 07:48:07;;;;;;;0.10;0.10;;;15.70;66.90;;;;;;4208275;28;20051;-61
2022/12/09 07:50:48;;;;;;;0.52;0.52;;;15.70;66.80;;;;;;4208798;28;20541;-60
2022/12/09 07:53:29;;;;;;;0.08;0.08;;;15.70;66.10;;;;;;4190709;28;20436;-60
2022/12/09 07:56:13;;;;;;;0.22;0.22;;;15.70;66.30;;;;;;4211296;28;20051;-60
2022/12/09 07:58:55;;;;;;;1.17;1.17;;;15.80;66.00;;;;;;4194339;28;20051;-60
2022/12/09 08:01:38;;;;;;;0.03;0.03;;;15.80;65.80;;;;;;4210211;28;20054;-60
2022/12/09 08:04:19;;;;;;;0.10;0.10;;;15.80;65.60;;;;;;4210581;28;20537;-60
2022/12/09 08:07:01;;;;;;;0.20;0.20;;;15.90;65.40;;;;;;4208925;28;20050;-60
2022/12/09 08:09:43;;;;;;;0.90;0.57;;;15.90;64.90;;;;;;4210216;28;20383;-59
2022/12/09 08:12:24;;;;;;;2.35;1.35;;;15.90;64.60;;;;;;4210532;28;20518;-60
2022/12/09 08:15:06;;;;;;;;;;;16.00;64.30;;;;;;4209395;28;20727;-60
2022/12/09 08:17:48;;;;;;;0.70;0.70;;;16.10;64.20;;;;;;4207405;28;19934;-59
2022/12/09 08:20:30;;;;;;;0.17;0.17;;;16.10;64.00;;;;;;4194281;28;20075;-60
2022/12/09 08:23:11;;;;;;;0.65;0.65;;;16.00;64.00;;;;;;4177911;28;20059;-60
2022/12/09 08:25:53;;;;;;;0.10;0.10;;;16.00;64.10;;;;;;4207407;28;20118;-60
2022/12/09 08:28:34;;;;;;;0.47;0.47;;;16.00;63.80;;;;;;4199137;28;20059;-60
2022/12/09 08:31:17;;;;;;;0.00;0.00;;;16.00;63.80;;;;;;4210171;28;20510;-59
2022/12/09 08:34:03;;;;;;;0.00;0.00;;;15.90;63.80;;;;;;4209956;28;20059;-60
2022/12/09 08:36:45;;;;;;;0.95;0.57;;;15.80;64.00;;;;;;4209680;28;20117;-59
2022/12/09 08:39:26;;;;;;;0.00;0.00;;;15.70;64.30;;;;;;4209677;28;20532;-60
2022/12/09 08:42:07;;;;;;;0.63;0.25;;;15.60;64.60;;;;;;4209421;28;20059;-60
2022/12/09 08:44:49;;;;;;;0.00;0.00;;;15.50;65.00;;;;;;4192729;28;20051;-60
2022/12/09 08:47:33;;;;;;;0.00;0.00;;;15.40;65.50;;;;;;4204236;28;20066;-59
2022/12/09 08:50:16;;;;;;;0.55;0.55;;;15.20;66.70;;;;;;4192869;28;20050;-51
2022/12/09 08:52:57;;;;;;;0.03;0.03;;;15.10;66.20;;;;;;4192965;28;20051;-51
2022/12/09 08:55:41;;;;;;;0.00;0.00;;;15.20;66.50;;;;;;4193102;28;20051;-53
2022/12/09 08:58:22;;;;;;;0.38;0.38;;;15.10;66.50;;;;;;4196104;28;20065;-50
2022/12/09 09:01:03;;;;;;;0.38;0.38;;;15.10;66.50;;;;;;4209701;28;20095;-53
2022/12/09 09:03:46;;;;;;;0.10;0.10;;;15.10;66.80;;;;;;4197323;28;20120;-51
2022/12/09 09:06:29;;;;;;;0.35;0.32;;;15.10;66.80;;;;;;4210225;28;20727;-52
2022/12/09 09:09:12;;;;;;;0.10;0.10;;;15.20;66.70;;;;;;4209676;28;20181;-49
2022/12/09 09:11:53;;;;;;;0.00;0.00;;;15.30;66.40;;;;;;4193014;28;20063;-50
2022/12/09 09:14:33;;;;;;;0.45;0.45;;;15.40;66.20;;;;;;4208764;28;20051;-53
2022/12/09 09:17:15;;;;;;;0.00;0.00;;;15.50;66.10;;;;;;4209210;28;20051;-53
2022/12/09 09:19:56;;;;;;;0.45;0.45;;;15.60;65.60;;;;;;4203220;28;20071;-54
2022/12/09 09:22:39;;;;;;;0.85;0.85;;;15.70;65.30;;;;;;4207943;28;20062;-53
2022/12/09 09:25:20;;;;;;;0.32;0.32;;;15.70;65.00;;;;;;4197345;28;20051;-56
2022/12/09 09:28:02;;;;;;;0.10;0.10;;;15.80;65.00;;;;;;4202996;28;20185;-52
2022/12/09 09:30:43;;;;;;;0.57;0.57;;;15.80;65.20;;;;;;4209418;28;20047;-50
2022/12/09 09:33:24;;;;;;;1.65;1.00;;;15.80;65.60;;;;;;4209235;28;20149;-51
2022/12/09 09:36:09;;;;;;;0.15;0.15;;;15.90;66.10;;;;;;4210107;28;20508;-51
2022/12/09 09:38:54;;;;;;;0.00;0.00;;;15.90;66.60;;;;;;4209512;28;20062;-51
2022/12/09 09:41:43;;;;;;;0.43;0.32;;;16.00;65.30;;;;;;4209684;28;20055;-52
2022/12/09 09:44:31;;;;;;;0.30;0.30;;;16.00;65.20;;;;;;4192827;28;20059;-51
2022/12/09 09:47:18;;;;;;;0.10;0.10;;;16.00;65.50;;;;;;4208739;28;20145;-55
2022/12/09 09:50:03;;;;;;;0.13;0.13;;;16.00;65.60;;;;;;4208889;28;20406;-51
2022/12/09 09:52:44;;;;;;;0.05;0.05;;;16.10;65.30;;;;;;4208913;28;20513;-51
2022/12/09 09:55:35;;;;;;;0.22;0.22;;;16.10;65.00;;;;;;4208449;28;20122;-50
2022/12/09 09:58:21;;;;;;;0.00;0.00;;;16.20;65.70;;;;;;4207681;28;20059;-56
2022/12/09 10:01:06;;;;;;;0.20;0.20;;;16.20;64.80;;;;;;4208778;28;20055;-60
2022/12/09 10:03:55;;;;;;;0.00;0.00;;;16.20;64.70;;;;;;4209615;28;20116;-60
2022/12/09 10:06:44;;;;;;;0.22;0.22;;;16.20;64.60;;;;;;4192493;28;20182;-60
2022/12/09 10:09:37;;;;;;;0.00;0.00;;;16.20;64.60;;;;;;4208518;28;20051;-60
2022/12/09 10:12:29;;;;;;;0.00;0.00;;;16.10;64.80;;;;;;4207913;28;20059;-60
2022/12/09 10:15:13;;;;;;;0.25;0.25;;;16.10;65.90;;;;;;4207760;28;20054;-61
2022/12/09 10:18:08;;;;;;;0.00;0.00;;;16.10;64.90;;;;;;4207975;28;20101;-61
2022/12/09 10:20:49;;;;;;;0.40;0.25;;;16.20;64.70;;;;;;4208730;28;20043;-61
2022/12/09 10:23:32;;;;;;;2.25;0.98;;;16.20;64.60;;;;;;4209379;28;20105;-61
2022/12/09 10:26:20;;;;;;;0.57;0.57;;;16.20;64.50;;;;;;4192526;28;20052;-61
2022/12/09 10:29:11;;;;;;;0.05;0.05;;;16.30;65.30;;;;;;4195877;28;20166;-61
2022/12/09 10:31:52;;;;;;;0.55;0.55;;;16.30;64.30;;;;;;4209266;28;20055;-61
2022/12/09 10:34:33;;;;;;;0.00;0.00;;;16.30;64.40;;;;;;4209054;28;20502;-60
2022/12/09 10:37:26;;;;;;;2.83;1.40;;;16.20;64.40;;;;;;4208923;28;20059;-60
2022/12/09 10:40:21;;;;;;;0.00;0.00;;;16.20;64.60;;;;;;4208899;28;20047;-60
2022/12/09 10:46:22;;;;;;;0.65;0.65;;;16.00;65.30;;;;;;4193968;28;20406;-61
2022/12/09 10:49:03;;;;;;;0.00;0.00;;;15.90;65.80;;;;;;4192193;28;20182;-60
2022/12/09 10:51:49;;;;;;;0.32;0.32;;;15.90;67.00;;;;;;4207493;28;20047;-61
2022/12/09 10:54:36;;;;;;;0.30;0.30;;;15.90;66.10;;;;;;4207537;28;20063;-61
2022/12/09 10:57:25;;;;;;;0.08;0.08;;;15.90;66.00;;;;;;4208012;28;20047;-61
2022/12/09 11:00:20;;;;;;;0.00;0.00;;;15.90;66.00;;;;;;4208760;28;20579;-61
2022/12/09 11:03:02;;;;;;;0.10;0.10;;;15.90;66.00;;;;;;4208420;28;20066;-60
2022/12/09 11:05:43;;;;;;;0.25;0.25;;;15.90;66.20;;;;;;4208205;28;20055;-60
2022/12/09 11:08:24;;;;;;;0.00;0.00;;;15.80;66.30;;;;;;4206996;28;20059;-61
2022/12/09 11:11:06;;;;;;;0.77;0.38;;;15.70;66.60;;;;;;4191863;28;20039;-61
2022/12/09 11:13:48;;;;;;;0.00;0.00;;;15.60;67.00;;;;;;4186067;28;20048;-61
2022/12/09 11:16:29;;;;;;;;;;;15.60;67.50;;;;;;4192366;28;20178;-61
2022/12/09 11:19:14;;;;;;;0.68;0.68;;;15.60;67.70;;;;;;4191543;28;20377;-61
2022/12/09 11:22:14;;;;;;;1.00;1.00;;;15.70;67.90;;;;;;4191485;28;20074;-61
2022/12/09 11:24:56;;;;;;;0.00;0.00;;;15.60;67.80;;;;;;4207251;28;20051;-60
2022/12/09 11:27:40;;;;;;;1.67;0.88;;;15.60;68.10;;;;;;4211027;28;20513;-61
2022/12/09 11:30:23;;;;;;;0.22;0.22;;;15.60;68.30;;;;;;4210785;28;20059;-61
2022/12/09 11:33:18;;;;;;;0.00;0.00;;;15.50;68.60;;;;;;4198761;28;20055;-61
2022/12/09 11:36:05;;;;;;;0.00;0.00;;;15.40;69.00;;;;;;4210364;28;20042;-61
2022/12/09 11:38:49;;;;;;;0.10;0.10;;;15.30;69.50;;;;;;4210810;28;20398;-61
2022/12/09 11:44:42;;;;;;;0.90;0.75;;;15.40;69.20;;;;;;4142240;28;20056;-61
2022/12/09 11:47:30;;;;;;;0.00;0.00;;;15.40;69.00;;;;;;4211392;28;20077;-62
2022/12/09 11:50:32;;;;;;;0.13;0.13;;;15.40;69.00;;;;;;4211400;28;20504;-61
2022/12/09 11:53:26;;;;;;;1.02;0.95;;;15.40;69.10;;;;;;4211621;28;20078;-61
2022/12/09 11:56:12;;;;;;;0.00;0.00;;;15.40;68.90;;;;;;4209162;28;20055;-61
2022/12/09 11:58:57;;;;;;;0.00;0.00;;;15.50;68.70;;;;;;4210417;28;20509;-61
2022/12/09 12:01:47;;;;;;;0.15;0.15;;;15.50;68.40;;;;;;4193939;28;20051;-61
2022/12/09 12:04:33;;;;;;;0.00;0.00;;;15.50;68.10;;;;;;4204178;28;20510;-61
2022/12/09 12:07:19;;;;;;;0.00;0.00;;;15.50;68.10;;;;;;4210283;28;20059;-61
2022/12/09 12:10:02;;;;;;;0.00;0.00;;;15.50;68.10;;;;;;4210146;28;20055;-60
2022/12/09 12:12:52;;;;;;;0.25;0.25;;;15.40;68.20;;;;;;4209218;28;20059;-61
2022/12/09 12:15:43;;;;;;;0.10;0.10;;;15.40;68.40;;;;;;4195208;28;20518;-61
2022/12/09 12:18:29;;;;;;;0.17;0.17;;;15.30;68.50;;;;;;4199250;28;20047;-61
2022/12/09 12:21:21;;;;;;;0.40;0.40;;;15.20;68.80;;;;;;4204987;28;20174;-61
2022/12/09 12:24:21;;;;;;;0.00;0.00;;;15.10;69.20;;;;;;4199121;28;20759;-60
2022/12/09 12:27:27;;;;;;;0.80;0.80;;;15.00;69.60;;;;;;4209716;28;20375;-61
2022/12/09 12:30:10;;;;;;;0.00;0.00;;;14.90;70.10;;;;;;4192630;28;20051;-61
2022/12/09 12:33:06;;;;;;;0.20;0.20;;;15.00;70.20;;;;;;4192982;28;20051;-61
2022/12/09 12:36:14;;;;;;;0.35;0.35;;;15.10;69.70;;;;;;4192598;28;20056;-62
2022/12/09 12:39:08;;;;;;;0.00;0.00;;;15.20;69.10;;;;;;4192469;28;20048;-62
2022/12/09 12:41:54;;;;;;;0.90;0.45;;;15.20;68.60;;;;;;4192553;28;20055;-61
2022/12/09 12:47:50;;;;;;;0.60;0.60;;;15.30;68.00;;;;;;4193268;28;20506;-62
2022/12/09 12:50:54;;;;;;;0.35;0.35;;;15.30;68.00;;;;;;4206981;28;20198;-56
2022/12/09 12:53:41;;;;;;;0.28;0.28;;;15.20;67.90;;;;;;4208599;28;20055;-54
2022/12/09 12:56:27;;;;;;;0.00;0.00;;;15.20;68.10;;;;;;4210268;28;20059;-51
2022/12/09 12:59:15;;;;;;;0.20;0.20;;;15.10;68.30;;;;;;4193567;28;20043;-51
2022/12/09 13:02:07;;;;;;;0.00;0.00;;;15.00;68.60;;;;;;4208938;28;20059;-51
2022/12/09 13:04:52;;;;;;;0.00;0.00;;;15.00;68.70;;;;;;4209285;28;20513;-51
2022/12/09 13:07:37;;;;;;;0.00;0.00;;;15.00;68.70;;;;;;4209329;28;20075;-51
2022/12/09 13:10:26;;;;;;;0.00;0.00;;;14.90;68.80;;;;;;4208412;28;20051;-51
2022/12/09 13:13:17;;;;;;;0.00;0.00;;;14.90;69.00;;;;;;4208571;28;20399;-51
2022/12/09 13:16:02;;;;;;;0.03;0.03;;;14.90;68.80;;;;;;4193773;28;20435;-56
2022/12/09 13:18:45;;;;;;;0.00;0.00;;;15.00;68.40;;;;;;4208699;28;20051;-51
2022/12/09 13:21:26;;;;;;;0.20;0.20;;;15.10;67.90;;;;;;4208737;28;20498;-51
2022/12/09 13:24:20;;;;;;;0.30;0.30;;;15.20;67.60;;;;;;4208144;28;20047;-54
2022/12/09 13:27:06;;;;;;;0.00;0.00;;;15.30;67.40;;;;;;4191673;28;20520;-55
2022/12/09 13:29:53;;;;;;;0.00;0.00;;;15.30;67.10;;;;;;4205570;28;20055;-57
2022/12/09 13:33:02;;;;;;;0.22;0.22;;;15.40;67.00;;;;;;4209174;28;20066;-50
2022/12/09 13:35:53;;;;;;;0.28;0.28;;;15.40;67.00;;;;;;4190765;28;20063;-55
2022/12/09 13:38:38;;;;;;;4.03;1.35;;;15.40;67.10;;;;;;4180752;28;20306;-54
2022/12/09 13:44:40;;;;;;;0.00;0.00;;;15.50;66.80;;;;;;4207125;28;20043;-51
2022/12/09 13:47:33;;;;;;;0.15;0.15;;;15.60;66.50;;;;;;4209385;28;20510;-52
2022/12/09 13:50:25;;;;;;;0.00;0.00;;;15.60;65.90;;;;;;4206123;28;20410;-51
2022/12/09 13:53:25;;;;;;;1.58;1.48;;;15.70;65.80;;;;;;4189735;28;20056;-52
2022/12/09 13:56:08;;;;;;;0.00;0.00;;;15.70;65.50;;;;;;4191897;28;20052;-51
2022/12/09 13:59:25;;;;;;;0.95;0.43;;;15.80;65.30;;;;;;4191387;28;20051;-50
2022/12/09 14:02:20;;;;;;;0.00;0.00;;;15.80;65.10;;;;;;4208271;28;20137;-50
2022/12/09 14:05:07;;;;;;;0.00;0.00;;;15.80;65.00;;;;;;4191683;28;20129;-52
2022/12/09 14:07:51;;;;;;;0.28;0.28;;;15.90;64.70;;;;;;4192078;28;20606;-51
2022/12/09 14:10:39;;;;;;;0.30;0.30;;;15.90;65.40;;;;;;4208001;28;20055;-53
2022/12/09 14:13:29;;;;;;;0.93;0.75;;;15.90;64.50;;;;;;4198886;28;20059;-62
2022/12/09 14:16:17;;;;;;;2.55;0.90;;;16.00;64.30;;;;;;4207012;28;20058;-61
2022/12/09 14:19:19;;;;;;;0.28;0.28;;;16.00;64.00;;;;;;4207155;28;20050;-62
2022/12/09 14:22:34;;;;;;;0.30;0.30;;;16.00;64.00;;;;;;4208071;28;20490;-62
2022/12/09 14:25:44;;;;;;;0.00;0.00;;;16.00;64.00;;;;;;4208469;28;20066;-62
2022/12/09 14:28:53;;;;;;;0.20;0.20;;;16.00;64.10;;;;;;4209034;28;20166;-62
2022/12/09 14:31:58;;;;;;;0.10;0.10;;;16.00;64.20;;;;;;4207742;28;20109;-63